Weather reports worldwide

Advertisment
Capdepera,Faro, Spain (8311): temperature & dewpoint: 16.02.2019 22:00:00 - 22.02.2019 22:00:00 (CET)Capdepera,Faro, Spain (8311): wind speed & gusts: 16.02.2019 22:00:00 - 22.02.2019 22:00:00 (CET)Capdepera,Faro, Spain (8311): wind direction: 16.02.2019 22:00:00 - 22.02.2019 22:00:00 (CET)Capdepera,Faro, Spain (8311): precipitation: 16.02.2019 22:00:00 - 22.02.2019 22:00:00 (CET)
Date & Time tt [°C] td [°C] ff [km/h] ff [kn] fx [km/h] fx [kn] dd rr [mm]
22.02.2019 22:00:00 - - - - - - - -
22.02.2019 21:00:00 - - - - - - - -
22.02.2019 20:00:00 16,0 4,1 21 11 35 19 N 0,0
22.02.2019 19:00:00 16,1 4,5 24 13 40 22 N -
22.02.2019 18:00:00 - - - - - - - -
22.02.2019 17:00:00 18,4 5,3 13 7 - - NNW -
22.02.2019 16:00:00 - - - - - - - -
22.02.2019 15:00:00 20,6 5,0 12 6 20 11 NNW 0,0
22.02.2019 14:00:00 18,4 9,4 2 1 9 5 NW 0,0
22.02.2019 13:00:00 17,4 10,3 6 3 - - S -
22.02.2019 12:00:00 16,0 9,7 6 3 10 5 SSE 0,0
22.02.2019 11:00:00 15,5 8,9 6 3 9 5 E 0,0
22.02.2019 10:00:00 16,1 8,4 0 0 8 5 SSE 0,0
22.02.2019 09:00:00 13,3 8,1 6 4 18 10 W 0,0
22.02.2019 08:00:00 10,2 8,8 8 4 19 10 WSW 0,0
22.02.2019 07:00:00 10,5 8,1 12 6 16 9 WSW -
22.02.2019 06:00:00 10,4 7,8 12 6 16 9 W 0,0
22.02.2019 05:00:00 10,5 8,4 14 8 - - W -
22.02.2019 04:00:00 10,3 8,9 7 4 15 8 W 0,0
22.02.2019 03:00:00 10,9 9,2 9 5 16 8 WSW 0,0
22.02.2019 02:00:00 11,1 8,8 9 5 15 8 W 0,0
22.02.2019 01:00:00 - - - - - - - -
22.02.2019 00:00:00 11,2 8,1 7 4 13 7 WSW 0,0
21.02.2019 23:00:00 11,6 7,8 6 3 14 7 WSW 0,0
21.02.2019 22:00:00 11,6 7,7 9 5 14 7 W 0,0
21.02.2019 21:00:00 - - - - - - - -
21.02.2019 20:00:00 - - - - - - - -
21.02.2019 19:00:00 - - - - - - - -
21.02.2019 18:00:00 - - - - - - - -
21.02.2019 17:00:00 - - - - - - - -
21.02.2019 16:00:00 15,3 8,5 13 7 16 9 SSE 0,0
21.02.2019 15:00:00 15,1 8,5 7 4 16 8 SE 0,0
21.02.2019 14:00:00 - - - - - - - -
21.02.2019 13:00:00 15,2 9,0 9 5 - - E -
21.02.2019 12:00:00 14,9 9,0 6 4 12 7 NNE 0,0
21.02.2019 11:00:00 15,4 9,0 6 3 13 7 NNE 0,0
21.02.2019 10:00:00 14,7 8,1 0 0 0 0 N 0,0
21.02.2019 09:00:00 11,9 7,3 1 0 - - NW -
21.02.2019 08:00:00 - - - - - - - -
21.02.2019 07:00:00 11,3 7,6 6 3 - - WSW -
21.02.2019 06:00:00 - - - - - - - -
21.02.2019 05:00:00 11,1 8,5 7 4 - - W -
21.02.2019 04:00:00 11,2 8,4 0 0 5 3 N 0,0
21.02.2019 03:00:00 12,0 9,0 1 1 7 4 SW 0,0
21.02.2019 02:00:00 - - - - - - - -
21.02.2019 01:00:00 12,0 9,0 5 3 - - S -
21.02.2019 00:00:00 11,9 8,9 0 0 12 7 N 0,0
20.02.2019 23:00:00 - - - - - - - -
20.02.2019 22:00:00 12,4 9,2 11 6 16 9 SE 0,0
20.02.2019 21:00:00 - - - - - - - -
20.02.2019 20:00:00 12,7 8,9 13 7 16 9 SSE 0,0
20.02.2019 19:00:00 13,0 9,3 14 8 21 12 SSE -
20.02.2019 18:00:00 - - - - - - - -
20.02.2019 17:00:00 - - - - - - - -
20.02.2019 16:00:00 - - - - - - - -
20.02.2019 15:00:00 - - - - - - - -
20.02.2019 14:00:00 - - - - - - - -
20.02.2019 13:00:00 15,2 8,9 9 5 12 7 NNE -
20.02.2019 12:00:00 15,3 9,4 6 4 11 6 NNW 0,0
20.02.2019 11:00:00 14,7 9,7 6 3 14 7 NNW 0,0
20.02.2019 10:00:00 13,2 10,0 10 5 - - N -
20.02.2019 09:00:00 12,2 8,8 13 7 17 9 NNW 0,0
20.02.2019 08:00:00 11,7 7,3 12 7 18 10 N 0,0
20.02.2019 07:00:00 11,8 6,7 13 7 19 11 NNE -
20.02.2019 06:00:00 - - - - - - - -
20.02.2019 05:00:00 11,9 7,0 17 9 21 11 ENE 0,0
20.02.2019 04:00:00 - - - - - - - -
20.02.2019 03:00:00 11,9 9,3 13 7 20 11 NE 0,0
20.02.2019 02:00:00 - - - - - - - -
20.02.2019 01:00:00 12,1 8,8 12 6 18 10 NNE -
20.02.2019 00:00:00 - - - - - - - -
19.02.2019 23:00:00 11,7 8,9 12 6 19 10 NE 0,0
19.02.2019 22:00:00 12,0 8,8 14 8 19 10 ENE 0,0
19.02.2019 21:00:00 12,0 8,5 16 9 22 12 ENE 0,0
19.02.2019 20:00:00 12,6 8,9 17 9 21 11 ENE 0,0
19.02.2019 19:00:00 12,5 8,3 10 5 15 8 E -
19.02.2019 18:00:00 12,1 7,4 10 5 - - ENE -
19.02.2019 17:00:00 12,5 7,4 13 7 18 10 E 0,0
19.02.2019 16:00:00 13,1 7,3 15 8 - - E -
19.02.2019 15:00:00 13,5 7,0 19 10 27 15 ESE 0,0
19.02.2019 14:00:00 - - - - - - - -
19.02.2019 13:00:00 - - - - - - - -
19.02.2019 12:00:00 13,6 6,8 27 15 - - ESE -
19.02.2019 11:00:00 13,3 8,9 23 12 29 16 ESE 0,0
19.02.2019 10:00:00 - - - - - - - -
19.02.2019 09:00:00 12,7 8,4 9 5 14 8 ENE 0,0
19.02.2019 08:00:00 - - - - - - - -
19.02.2019 07:00:00 - - - - - - - -
19.02.2019 06:00:00 12,1 8,8 11 6 19 10 SSE 0,0
19.02.2019 05:00:00 - - - - - - - -
19.02.2019 04:00:00 - - - - - - - -
19.02.2019 03:00:00 12,4 9,4 18 10 24 13 SSE 0,0
19.02.2019 02:00:00 12,6 9,6 16 9 24 13 SSE 0,0
19.02.2019 01:00:00 - - - - - - - -
19.02.2019 00:00:00 - - - - - - - -
18.02.2019 23:00:00 12,8 10,5 14 8 21 11 SE 0,0
18.02.2019 22:00:00 12,7 10,6 16 9 21 12 SE 0,0
18.02.2019 21:00:00 - - - - - - - -
18.02.2019 20:00:00 - - - - - - - -
18.02.2019 19:00:00 - - - - - - - -
18.02.2019 18:00:00 - - - - - - - -
18.02.2019 17:00:00 14,7 11,9 14 8 - - SSE -
18.02.2019 16:00:00 - - - - - - - -
18.02.2019 15:00:00 15,9 11,9 16 9 21 12 S 0,0
18.02.2019 14:00:00 - - - - - - - -
18.02.2019 13:00:00 16,2 12,3 16 9 21 11 S -
18.02.2019 12:00:00 - - - - - - - -
18.02.2019 11:00:00 15,0 12,3 14 7 21 11 SSE 0,0
18.02.2019 10:00:00 13,7 12,2 15 8 21 11 SSE 0,0
18.02.2019 09:00:00 13,2 12,2 14 8 18 10 SSE 0,0
18.02.2019 08:00:00 12,5 11,6 13 7 19 10 S 0,0
18.02.2019 07:00:00 - - - - - - - -
18.02.2019 06:00:00 - - - - - - - -
18.02.2019 05:00:00 - - - - - - - -
18.02.2019 04:00:00 - - - - - - - -
18.02.2019 03:00:00 - - - - - - - -
18.02.2019 02:00:00 13,0 12,2 14 7 20 11 S 0,0
18.02.2019 01:00:00 13,0 12,2 18 10 23 12 S -
18.02.2019 00:00:00 - - - - - - - -
17.02.2019 23:00:00 13,5 12,5 20 11 24 13 SSE 0,0
17.02.2019 22:00:00 13,1 12,1 20 11 23 12 SSE 0,0
17.02.2019 21:00:00 13,4 12,4 16 9 21 11 SSE 0,0
17.02.2019 20:00:00 - - - - - - - -
17.02.2019 19:00:00 13,4 12,1 18 10 21 11 SSE -
17.02.2019 18:00:00 - - - - - - - -
17.02.2019 17:00:00 - - - - - - - -
17.02.2019 16:00:00 14,2 11,7 18 10 23 12 SE 0,0
17.02.2019 15:00:00 - - - - - - - -
17.02.2019 14:00:00 15,3 10,9 15 8 19 10 SE 0,0
17.02.2019 13:00:00 16,6 10,4 15 8 20 11 SSE -
17.02.2019 12:00:00 16,4 10,3 14 8 21 11 SSE 0,0
17.02.2019 11:00:00 - - - - - - - -
17.02.2019 10:00:00 - - - - - - - -
17.02.2019 09:00:00 - - - - - - - -
17.02.2019 08:00:00 12,6 9,9 19 10 24 13 SSE 0,0
17.02.2019 07:00:00 12,4 10,8 16 9 20 11 SSE -
17.02.2019 06:00:00 12,3 10,9 13 7 21 11 S 0,0
17.02.2019 05:00:00 12,6 11,4 17 9 20 11 SSE 0,0
17.02.2019 04:00:00 12,6 11,7 17 9 22 12 S 0,0
17.02.2019 03:00:00 12,7 11,8 15 8 20 11 SSE 0,0
17.02.2019 02:00:00 - - - - - - - -
17.02.2019 01:00:00 - - - - - - - -
17.02.2019 00:00:00 - - - - - - - -
16.02.2019 23:00:00 - - - - - - - -
16.02.2019 22:00:00 12,6 11,4 16 8 21 11 SSE 0,0

tt = temperature
td = dewpoint
ff = wind speed
fx = gusts
dd = wind direction
rr = precipitation

Next stations